EGMONT CHANNEL ENTRANCE, FL - 214

GPS Positions

GPS Time
Latitude
Degrees
Longitude
Degrees
Gap
 
Distance
NM
Speed
Knots
Direction
Degrees
2021 Aug 19, 23:51 27.59044° -82.93109° 30 min 0.01 0.00
180°
2021 Aug 19, 23:21 27.59046° -82.93109° 30 min 0.01 0.01
117°
2021 Aug 19, 22:51 27.59048° -82.93114° 30 min 0.01 0.00
90°
2021 Aug 19, 22:21 27.59048° -82.93115° 30 min 0.01 0.01
99°
2021 Aug 19, 21:51 27.59049° -82.93122° 30 min 0.01 0.01
114°
2021 Aug 19, 21:21 27.59052° -82.93130° 30 min 0.01 0.01
44°
2021 Aug 19, 20:51 27.59048° -82.93135° 30 min 0.01 0.01
51°
2021 Aug 19, 20:21 27.59044° -82.93141° 30 min 0.01 0.01
37°
2021 Aug 19, 19:51 27.59038° -82.93146° 30 min 0.01 0.00
2021 Aug 19, 19:21 27.59038° -82.93146° 30 min 0.01 0.00
119°
2021 Aug 19, 18:51 27.59039° -82.93148° 30 min 0.01 0.00
2021 Aug 19, 18:21 27.59037° -82.93148° 30 min 0.01 0.00
180°
2021 Aug 19, 17:51 27.59038° -82.93148° 30 min 0.01 0.00
2021 Aug 19, 17:21 27.59036° -82.93148° 30 min 0.01 0.00
2021 Aug 19, 16:51 27.59036° -82.93148° 30 min 0.01 0.00
2021 Aug 19, 16:21 27.59035° -82.93148° 30 min 0.01 0.00
180°
2021 Aug 19, 15:51 27.59037° -82.93148° 30 min 0.01 0.00
224°
2021 Aug 19, 15:21 27.59039° -82.93146° 30 min 0.01 0.01
254°
2021 Aug 19, 14:51 27.59040° -82.93141° 30 min 0.01 0.00
115°
2021 Aug 19, 14:21 27.59041° -82.93143° 30 min 0.01 0.00
270°
2021 Aug 19, 13:51 27.59041° -82.93141° 30 min 0.01 0.01
226°
2021 Aug 19, 13:21 27.59045° -82.93137° 30 min 0.01 0.00
241°
2021 Aug 19, 12:51 27.59046° -82.93135° 30 min 0.01 0.00
299°
2021 Aug 19, 12:21 27.59045° -82.93133° 30 min 0.01 0.00
136°
2021 Aug 19, 11:51 27.59047° -82.93135° 30 min 0.01 0.00
2021 Aug 19, 11:21 27.59045° -82.93135° 30 min 0.01 0.00
180°
2021 Aug 19, 10:51 27.59046° -82.93135° 30 min 0.01 0.00
61°
2021 Aug 19, 10:21 27.59045° -82.93137° 30 min 0.01 0.00
2021 Aug 19, 09:51 27.59043° -82.93137° 30 min 0.01 0.00
50°
2021 Aug 19, 09:21 27.59041° -82.93139° 30 min 0.01 0.01
63°
2021 Aug 19, 08:51 27.59039° -82.93143° 30 min 0.01 0.01
2021 Aug 19, 08:21 27.59035° -82.93143° 30 min 0.01 0.00
32°
2021 Aug 19, 07:51 27.59032° -82.93146° 30 min 0.01 0.00
34°
2021 Aug 19, 07:21 27.59029° -82.93148° 30 min 0.01 0.01
281°
2021 Aug 19, 06:51 27.59027° -82.93141° 30 min 0.01 0.00
2021 Aug 19, 06:21 27.59026° -82.93141° 30 min 0.01 0.00
295°
2021 Aug 19, 05:51 27.59025° -82.93139° 30 min 0.01 0.01
219°
2021 Aug 19, 05:21 27.59030° -82.93135° 30 min 0.00 0.01
242°
2021 Aug 19, 04:51 27.59033° -82.93128° 30 min 0.00 0.01
229°
2021 Aug 19, 04:21 27.59039° -82.93120° 30 min 0.01 0.01
217°
2021 Aug 19, 03:51 27.59045° -82.93115° 30 min 0.01 0.00
230°
2021 Aug 19, 03:21 27.59046° -82.93114° 30 min 0.01 0.00
180°
2021 Aug 19, 02:51 27.59048° -82.93114° 30 min 0.01 0.00
2021 Aug 19, 02:21 27.59048° -82.93114° 30 min 0.01 0.00
180°
2021 Aug 19, 01:51 27.59049° -82.93114° 30 min 0.01 0.00
90°
2021 Aug 19, 01:21 27.59049° -82.93118° 30 min 0.01 0.00
119°
2021 Aug 19, 00:51 27.59050° -82.93120° 30 min 0.01 0.00
136°
2021 Aug 19, 00:21 27.59052° -82.93122° 30 min 0.01 0.00
90°
2021 Aug 18, 23:51 27.59052° -82.93124° 30 min 0.01 0.00
2021 Aug 18, 23:21 27.59052° -82.93124° 30 min 0.01 0.00
2021 Aug 18, 22:51 27.59051° -82.93124° 30 min 0.01 0.00
115°
2021 Aug 18, 22:21 27.59052° -82.93127° 30 min 0.01 0.00
90°
2021 Aug 18, 21:51 27.59052° -82.93128° 30 min 0.01 0.01
90°
2021 Aug 18, 21:21 27.59052° -82.93135° 30 min 0.01 0.01
26°
2021 Aug 18, 20:51 27.59048° -82.93137° 30 min 0.01 0.00
50°
2021 Aug 18, 20:21 27.59047° -82.93139° 30 min 0.01 0.01
63°
2021 Aug 18, 19:51 27.59045° -82.93143° 30 min 0.01 0.00
44°
2021 Aug 18, 19:21 27.59043° -82.93146° 30 min 0.01 0.00
61°
2021 Aug 18, 18:51 27.59041° -82.93148° 30 min 0.01 0.00
119°
2021 Aug 18, 18:21 27.59043° -82.93150° 30 min 0.01 0.01
2021 Aug 18, 17:51 27.59038° -82.93150° 30 min 0.01 0.00
2021 Aug 18, 17:21 27.59036° -82.93150° 30 min 0.01 0.00
50°
2021 Aug 18, 16:51 27.59035° -82.93152° 30 min 0.01 0.00
305°
2021 Aug 18, 16:21 27.59034° -82.93150° 30 min 0.01 0.00
90°
2021 Aug 18, 15:51 27.59034° -82.93152° 30 min 0.01 0.00
329°
2021 Aug 18, 15:21 27.59032° -82.93150° 30 min 0.01 0.00
2021 Aug 18, 14:51 27.59032° -82.93150° 30 min 0.01 0.00
2021 Aug 18, 14:21 27.59032° -82.93150° 30 min 0.01 0.00
2021 Aug 18, 13:51 27.59032° -82.93150° 30 min 0.01 0.01
231°
2021 Aug 18, 13:21 27.59035° -82.93146° 30 min 0.01 0.00
180°
2021 Aug 18, 12:51 27.59036° -82.93146° 30 min 0.01 0.00
241°
2021 Aug 18, 12:21 27.59037° -82.93143° 30 min 0.01 0.00
224°
2021 Aug 18, 11:51 27.59039° -82.93141° 30 min 0.01 0.00
180°
2021 Aug 18, 11:21 27.59040° -82.93141° 30 min 0.01 0.00
299°
2021 Aug 18, 10:51 27.59039° -82.93139° 30 min 0.01 0.00
310°
2021 Aug 18, 10:21 27.59038° -82.93137° 30 min 0.01 0.00
180°
2021 Aug 18, 09:51 27.59040° -82.93137° 30 min 0.01 0.00
2021 Aug 18, 09:21 27.59039° -82.93137° 30 min 0.01 0.00
2021 Aug 18, 08:51 27.59039° -82.93137° 30 min 0.01 0.00
2021 Aug 18, 08:21 27.59038° -82.93137° 30 min 0.01 0.00
2021 Aug 18, 07:51 27.59038° -82.93137° 30 min 0.01 0.00
180°
2021 Aug 18, 07:21 27.59039° -82.93137° 30 min 0.01 0.00
2021 Aug 18, 06:51 27.59036° -82.93137° 30 min 0.01 0.00
2021 Aug 18, 06:21 27.59036° -82.93137° 30 min 0.01 0.00
224°
2021 Aug 18, 05:51 27.59038° -82.93135° 30 min 0.01 0.01
241°
2021 Aug 18, 05:21 27.59040° -82.93130° 30 min 0.01 0.00
61°
2021 Aug 18, 04:51 27.59039° -82.93133° 30 min 0.01 0.00
299°
2021 Aug 18, 04:21 27.59038° -82.93130° 30 min 0.00 0.01
280°
2021 Aug 18, 03:51 27.59037° -82.93124° 30 min 0.01 0.00
318°
2021 Aug 18, 03:21 27.59035° -82.93122° 30 min 0.01 0.02
287°
2021 Aug 18, 02:51 27.59031° -82.93107° 30 min 0.01 0.00
2021 Aug 18, 02:21 27.59030° -82.93107° 30 min 0.01 0.00
241°
2021 Aug 18, 01:51 27.59031° -82.93105° 30 min 0.01 0.00
180°
2021 Aug 18, 01:21 27.59032° -82.93105° 30 min 0.01 0.00
211°
2021 Aug 18, 00:51 27.59034° -82.93103° 30 min 0.01 0.00
90°
2021 Aug 18, 00:21 27.59034° -82.93105° 30 min 0.01 0.00
203°
2021 Aug 17, 23:51 27.59037° -82.93103° 30 min 0.01 0.00
71°
2021 Aug 17, 23:21 27.59036° -82.93107° 30 min 0.01 0.00
180°
2021 Aug 17, 22:51 27.59037° -82.93107° 30 min 0.01 0.01
180°
2021 Aug 17, 22:21 27.59041° -82.93107° 30 min 0.01 0.01
129°
2021 Aug 17, 21:51 27.59045° -82.93111° 30 min 0.01 0.00
136°
2021 Aug 17, 21:21 27.59047° -82.93114° 30 min 0.01 0.00
109°
2021 Aug 17, 20:51 27.59048° -82.93118° 30 min 0.01 0.00
115°
2021 Aug 17, 20:21 27.59049° -82.93120° 30 min 0.01 0.00
90°
2021 Aug 17, 19:51 27.59049° -82.93124° 30 min 0.01 0.00
109°
2021 Aug 17, 19:21 27.59050° -82.93128° 30 min 0.01 0.01
63°
2021 Aug 17, 18:51 27.59048° -82.93133° 30 min 0.01 0.00
90°
2021 Aug 17, 18:21 27.59048° -82.93135° 30 min 0.01 0.00
61°
2021 Aug 17, 17:51 27.59047° -82.93137° 30 min 0.01 0.00
23°
2021 Aug 17, 17:21 27.59044° -82.93139° 30 min 0.01 0.00
44°
2021 Aug 17, 16:51 27.59041° -82.93141° 30 min 0.01 0.00
180°
2021 Aug 17, 16:21 27.59043° -82.93141° 30 min 0.01 0.00
90°
2021 Aug 17, 15:51 27.59043° -82.93143° 30 min 0.01 0.00
224°
2021 Aug 17, 15:21 27.59045° -82.93141° 30 min 0.01 0.00
44°
2021 Aug 17, 14:51 27.59043° -82.93143° 30 min 0.01 0.01
243°
2021 Aug 17, 14:21 27.59045° -82.93139° 30 min 0.01 0.00
270°
2021 Aug 17, 13:51 27.59045° -82.93137° 30 min 0.01 0.00
180°
2021 Aug 17, 13:21 27.59046° -82.93137° 30 min 0.01 0.01
251°
2021 Aug 17, 12:51 27.59048° -82.93130° 30 min 0.01 0.00
2021 Aug 17, 12:21 27.59047° -82.93130° 30 min 0.01 0.00
251°
2021 Aug 17, 11:51 27.59048° -82.93127° 30 min 0.01 0.00
2021 Aug 17, 11:21 27.59047° -82.93127° 30 min 0.01 0.00
270°
2021 Aug 17, 10:51 27.59047° -82.93124° 30 min 0.01 0.00
270°
2021 Aug 17, 10:21 27.59047° -82.93120° 30 min 0.01 0.00
136°
2021 Aug 17, 09:51 27.59049° -82.93122° 30 min 0.01 0.01
77°
2021 Aug 17, 09:21 27.59048° -82.93127° 30 min 0.01 0.00
270°
2021 Aug 17, 08:51 27.59048° -82.93122° 30 min 0.01 0.00
270°
2021 Aug 17, 08:21 27.59048° -82.93120° 30 min 0.01 0.00
90°
2021 Aug 17, 07:51 27.59048° -82.93122° 30 min 0.01 0.00
136°
2021 Aug 17, 07:21 27.59050° -82.93124° 30 min 0.01 0.00
119°
2021 Aug 17, 06:51 27.59051° -82.93127° 30 min 0.01 0.00
180°
2021 Aug 17, 06:21 27.59052° -82.93127° 30 min 0.01 0.00
316°
2021 Aug 17, 05:51 27.59050° -82.93124° 30 min 0.01 0.00
136°
2021 Aug 17, 05:21 27.59052° -82.93127° 30 min 0.01 0.00
2021 Aug 17, 04:51 27.59052° -82.93127° 30 min 0.01 0.00
295°
2021 Aug 17, 04:21 27.59051° -82.93124° 30 min 0.01 0.00
180°
2021 Aug 17, 03:51 27.59052° -82.93124° 30 min 0.01 0.00
109°
2021 Aug 17, 03:21 27.59053° -82.93128° 30 min 0.01 0.00
310°
2021 Aug 17, 02:51 27.59052° -82.93127° 30 min 0.01 0.00
2021 Aug 17, 02:21 27.59052° -82.93127° 30 min 0.01 0.00
295°
2021 Aug 17, 01:51 27.59051° -82.93124° 30 min 0.01 0.00
245°
2021 Aug 17, 01:21 27.59052° -82.93122° 30 min 0.01 0.00
90°
2021 Aug 17, 00:51 27.59052° -82.93127° 30 min 0.01 0.00
2021 Aug 17, 00:21 27.59052° -82.93127° 30 min 0.01 0.00
90°
2021 Aug 16, 23:51 27.59052° -82.93128° 30 min 0.01 0.00
305°
2021 Aug 16, 23:21 27.59051° -82.93127° 30 min 0.01 0.00
270°
2021 Aug 16, 22:51 27.59051° -82.93124° 30 min 0.01 0.00
180°
2021 Aug 16, 22:21 27.59053° -82.93124° 30 min 0.01 0.01
90°
2021 Aug 16, 21:51 27.59053° -82.93130° 30 min 0.01 0.00
2021 Aug 16, 21:21 27.59053° -82.93130° 30 min 0.01 0.00
2021 Aug 16, 20:51 27.59051° -82.93130° 30 min 0.01 0.01
69°
2021 Aug 16, 20:21 27.59049° -82.93137° 30 min 0.01 0.00
180°
2021 Aug 16, 19:51 27.59051° -82.93137° 30 min 0.01 0.00
2021 Aug 16, 19:21 27.59051° -82.93137° 30 min 0.01 0.00
90°
2021 Aug 16, 18:51 27.59051° -82.93139° 30 min 0.01 0.00
2021 Aug 16, 18:21 27.59051° -82.93139° 30 min 0.01 0.01
43°
2021 Aug 16, 17:51 27.59047° -82.93143° 30 min 0.01 0.00
90°
2021 Aug 16, 17:21 27.59047° -82.93146° 30 min 0.01 0.00
270°
2021 Aug 16, 16:51 27.59047° -82.93143° 30 min 0.01 0.00
65°
2021 Aug 16, 16:21 27.59046° -82.93146° 30 min 0.01 0.00
2021 Aug 16, 15:51 27.59045° -82.93146° 30 min 0.01 0.00
90°
2021 Aug 16, 15:21 27.59045° -82.93148° 30 min 0.01 0.00
270°
2021 Aug 16, 14:51 27.59045° -82.93146° 30 min 0.01 0.00
180°
2021 Aug 16, 14:21 27.59046° -82.93146° 30 min 0.01 0.00
42°
2021 Aug 16, 13:51 27.59044° -82.93148° 30 min 0.01 0.01
241°
2021 Aug 16, 13:21 27.59046° -82.93143° 30 min 0.01 0.00
224°
2021 Aug 16, 12:51 27.59048° -82.93141° 30 min 0.01 0.00
2021 Aug 16, 12:21 27.59048° -82.93141° 30 min 0.01 0.00
2021 Aug 16, 11:51 27.59047° -82.93141° 30 min 0.01 0.00
2021 Aug 16, 11:21 27.59046° -82.93141° 30 min 0.01 0.00
245°
2021 Aug 16, 10:51 27.59047° -82.93139° 30 min 0.01 0.00
251°
2021 Aug 16, 10:21 27.59048° -82.93135° 30 min 0.01 0.00
115°
2021 Aug 16, 09:51 27.59049° -82.93137° 30 min 0.01 0.00
180°
2021 Aug 16, 09:21 27.59050° -82.93137° 30 min 0.01 0.01
270°
2021 Aug 16, 08:51 27.59050° -82.93130° 30 min 0.01 0.00
2021 Aug 16, 08:21 27.59050° -82.93130° 30 min 0.01 0.01
74°
2021 Aug 16, 07:51 27.59049° -82.93135° 30 min 0.01 0.00
90°
2021 Aug 16, 07:21 27.59049° -82.93139° 30 min 0.01 0.00
2021 Aug 16, 06:51 27.59049° -82.93139° 30 min 0.01 0.00
270°
2021 Aug 16, 06:21 27.59049° -82.93135° 30 min 0.01 0.00
74°
2021 Aug 16, 05:51 27.59048° -82.93139° 30 min 0.01 0.00
235°
2021 Aug 16, 05:21 27.59049° -82.93137° 30 min 0.01 0.00
90°
2021 Aug 16, 04:51 27.59049° -82.93139° 30 min 0.01 0.00
251°
2021 Aug 16, 04:21 27.59050° -82.93135° 30 min 0.01 0.01
66°
2021 Aug 16, 03:51 27.59047° -82.93143° 30 min 0.01 0.01
254°
2021 Aug 16, 03:21 27.59048° -82.93139° 30 min 0.01 0.01
90°
2021 Aug 16, 02:51 27.59048° -82.93146° 30 min 0.01 0.00
270°
2021 Aug 16, 02:21 27.59048° -82.93141° 30 min 0.01 0.00
270°
2021 Aug 16, 01:51 27.59048° -82.93139° 30 min 0.01 0.00
2021 Aug 16, 01:21 27.59047° -82.93139° 30 min 0.01 0.00
119°
2021 Aug 16, 00:51 27.59048° -82.93141° 30 min 0.01 0.00
61°
2021 Aug 16, 00:21 27.59047° -82.93143° 30 min 0.01 0.00
241°
2021 Aug 15, 23:51 27.59048° -82.93141° 30 min 0.01 0.00
2021 Aug 15, 23:21 27.59048° -82.93141° 30 min 0.01 0.01
226°
2021 Aug 15, 22:51 27.59051° -82.93137° 30 min 0.01 0.00
56°
2021 Aug 15, 22:21 27.59049° -82.93141° 30 min 0.01 0.00
236°
2021 Aug 15, 21:51 27.59051° -82.93137° 30 min 0.01 0.00
180°
2021 Aug 15, 21:21 27.59053° -82.93137° 30 min 0.01 0.00
2021 Aug 15, 20:51 27.59050° -82.93137° 30 min 0.01 0.00
2021 Aug 15, 20:21 27.59049° -82.93137° 30 min 0.01 0.00
58°
2021 Aug 15, 19:51 27.59047° -82.93141° 30 min 0.01 0.01
225°
2021 Aug 15, 19:21 27.59052° -82.93135° 30 min 0.01 0.00
90°
2021 Aug 15, 18:51 27.59052° -82.93137° 30 min 0.01 0.00
74°
2021 Aug 15, 18:21 27.59051° -82.93141° 30 min 0.01 0.00
2021 Aug 15, 17:51 27.59051° -82.93141° 30 min 0.01 0.00
2021 Aug 15, 17:21 27.59050° -82.93141° 30 min 0.01 0.00
90°
2021 Aug 15, 16:51 27.59050° -82.93146° 30 min 0.01 0.01
37°
2021 Aug 15, 16:21 27.59045° -82.93150° 30 min 0.01 0.00
2021 Aug 15, 15:51 27.59043° -82.93150° 30 min 0.01 0.00
2021 Aug 15, 15:21 27.59043° -82.93150° 30 min 0.01 0.00
180°
2021 Aug 15, 14:51 27.59044° -82.93150° 30 min 0.01 0.00
2021 Aug 15, 14:21 27.59044° -82.93150° 30 min 0.01 0.00
2021 Aug 15, 13:51 27.59041° -82.93150° 30 min 0.01 0.01
39°
2021 Aug 15, 13:21 27.59037° -82.93154° 30 min 0.01 0.00
270°
2021 Aug 15, 12:51 27.59037° -82.93152° 30 min 0.01 0.00
90°
2021 Aug 15, 12:21 27.59037° -82.93154° 30 min 0.01 0.00
328°
2021 Aug 15, 11:51 27.59034° -82.93152° 30 min 0.01 0.00
180°
2021 Aug 15, 11:21 27.59036° -82.93152° 30 min 0.01 0.00
230°
2021 Aug 15, 10:51 27.59037° -82.93150° 30 min 0.01 0.00
2021 Aug 15, 10:21 27.59036° -82.93150° 30 min 0.01 0.01
223°
2021 Aug 15, 09:51 27.59040° -82.93146° 30 min 0.01 0.00
115°
2021 Aug 15, 09:21 27.59041° -82.93148° 30 min 0.01 0.01
254°
2021 Aug 15, 08:51 27.59043° -82.93143° 30 min 0.01 0.00
245°
2021 Aug 15, 08:21 27.59044° -82.93141° 30 min 0.01 0.01
239°
2021 Aug 15, 07:51 27.59048° -82.93133° 30 min 0.01 0.01
78°
2021 Aug 15, 07:21 27.59047° -82.93139° 30 min 0.01 0.00
180°
2021 Aug 15, 06:51 27.59048° -82.93139° 30 min 0.01 0.00
254°
2021 Aug 15, 06:21 27.59049° -82.93135° 30 min 0.01 0.00
222°
2021 Aug 15, 05:51 27.59051° -82.93133° 30 min 0.01 0.01
74°
2021 Aug 15, 05:21 27.59050° -82.93137° 30 min 0.01 0.01
46°
2021 Aug 15, 04:51 27.59047° -82.93141° 30 min 0.01 0.00
270°
2021 Aug 15, 04:21 27.59047° -82.93139° 30 min 0.01 0.01
63°
2021 Aug 15, 03:51 27.59045° -82.93143° 30 min 0.01 0.01
206°
2021 Aug 15, 03:21 27.59049° -82.93141° 30 min 0.01 0.01
33°
2021 Aug 15, 02:51 27.59043° -82.93146° 30 min 0.01 0.00
2021 Aug 15, 02:21 27.59041° -82.93146° 30 min 0.01 0.01
51°
2021 Aug 15, 01:51 27.59038° -82.93150° 30 min 0.01 0.00
270°
2021 Aug 15, 01:21 27.59038° -82.93148° 30 min 0.01 0.00
180°
2021 Aug 15, 00:51 27.59039° -82.93148° 30 min 0.01 0.01
17°
2021 Aug 15, 00:21 27.59033° -82.93150° 30 min 0.01 0.00
180°
2021 Aug 14, 23:51 27.59035° -82.93150° 30 min 0.01 0.00
90°
2021 Aug 14, 23:21 27.59035° -82.93152° 30 min 0.01 0.01
218°
2021 Aug 14, 22:51 27.59039° -82.93148° 30 min 0.01 0.00
212°
2021 Aug 14, 22:21 27.59043° -82.93146° 30 min 0.01 0.01
206°
2021 Aug 14, 21:51 27.59047° -82.93143° 30 min 0.01 0.01
217°
2021 Aug 14, 21:21 27.59052° -82.93139° 30 min 0.01 0.00
2021 Aug 14, 20:51 27.59049° -82.93139° 30 min 0.01 0.00
90°
2021 Aug 14, 20:21 27.59049° -82.93143° 30 min 0.01 0.01
307°
2021 Aug 14, 19:51 27.59046° -82.93139° 30 min 0.01 0.00
180°
2021 Aug 14, 19:21 27.59047° -82.93139° 30 min 0.01 0.00
90°
2021 Aug 14, 18:51 27.59047° -82.93141° 30 min 0.01 0.01
63°
2021 Aug 14, 18:21 27.59045° -82.93146° 30 min 0.01 0.00
61°
2021 Aug 14, 17:51 27.59044° -82.93148° 30 min 0.01 0.00
2021 Aug 14, 17:21 27.59041° -82.93148° 30 min 0.01 0.00
65°
2021 Aug 14, 16:51 27.59040° -82.93150° 30 min 0.01 0.00
2021 Aug 14, 16:21 27.59038° -82.93150° 30 min 0.01 0.00
2021 Aug 14, 15:51 27.59038° -82.93150° 30 min 0.01 0.00
33°
2021 Aug 14, 15:21 27.59036° -82.93152° 30 min 0.01 0.00
2021 Aug 14, 14:51 27.59035° -82.93152° 30 min 0.01 0.00
2021 Aug 14, 14:21 27.59033° -82.93152° 30 min 0.01 0.00
2021 Aug 14, 13:51 27.59030° -82.93152° 30 min 0.01 0.00
2021 Aug 14, 13:21 27.59029° -82.93152° 30 min 0.01 0.01
2021 Aug 14, 12:51 27.59024° -82.93152° 30 min 0.01 0.00
2021 Aug 14, 12:21 27.59024° -82.93152° 30 min 0.01 0.01
2021 Aug 14, 11:51 27.59020° -82.93152° 30 min 0.01 0.00
270°
2021 Aug 14, 11:21 27.59020° -82.93150° 30 min 0.01 0.01
166°
2021 Aug 14, 10:51 27.59025° -82.93152° 30 min 0.01 0.00
2021 Aug 14, 10:21 27.59024° -82.93152° 30 min 0.01 0.00
180°
2021 Aug 14, 09:51 27.59027° -82.93152° 30 min 0.01 0.01
194°
2021 Aug 14, 09:21 27.59033° -82.93150° 30 min 0.01 0.00
180°
2021 Aug 14, 08:51 27.59035° -82.93150° 30 min 0.01 0.01
248°
2021 Aug 14, 08:21 27.59038° -82.93141° 30 min 0.01 0.01
55°
2021 Aug 14, 07:51 27.59034° -82.93148° 30 min 0.01 0.00
245°
2021 Aug 14, 07:21 27.59035° -82.93146° 30 min 0.01 0.00
180°
2021 Aug 14, 06:51 27.59038° -82.93146° 30 min 0.01 0.01
229°
2021 Aug 14, 06:21 27.59044° -82.93139° 30 min 0.01 0.00
119°
2021 Aug 14, 05:51 27.59045° -82.93141° 30 min 0.01 0.00
61°
2021 Aug 14, 05:21 27.59044° -82.93143° 30 min 0.01 0.00
222°
2021 Aug 14, 04:51 27.59046° -82.93141° 30 min 0.01 0.01
51°
2021 Aug 14, 04:21 27.59043° -82.93146° 30 min 0.01 0.00
2021 Aug 14, 03:51 27.59043° -82.93146° 30 min 0.01 0.01
63°
2021 Aug 14, 03:21 27.59040° -82.93150° 30 min 0.01 0.00
2021 Aug 14, 02:51 27.59037° -82.93150° 30 min 0.01 0.01
2021 Aug 14, 02:21 27.59033° -82.93150° 30 min 0.01 0.00
180°
2021 Aug 14, 01:51 27.59034° -82.93150° 30 min 0.01 0.01
14°
2021 Aug 14, 01:21 27.59029° -82.93152° 30 min 0.01 0.01
198°
2021 Aug 14, 00:51 27.59033° -82.93150° 30 min 0.01 0.00
130°
2021 Aug 14, 00:21 27.59034° -82.93152° 30 min 0.01 0.00
42°
2021 Aug 13, 23:51 27.59032° -82.93154° 30 min 0.01 0.00
2021 Aug 13, 23:21 27.59032° -82.93154° 30 min 0.01 0.00
2021 Aug 13, 22:51 27.59029° -82.93154° 30 min 0.01 0.02
335°
2021 Aug 13, 22:21 27.59017° -82.93148° 30 min 0.01 0.00
2021 Aug 13, 21:51 27.59015° -82.93148° 30 min 0.01 0.02
171°
2021 Aug 13, 21:21 27.59027° -82.93150° 30 min 0.01 0.00
180°
2021 Aug 13, 20:51 27.59031° -82.93150° 30 min 0.01 0.00
180°
2021 Aug 13, 20:21 27.59032° -82.93150° 30 min 0.01 0.00
58°
2021 Aug 13, 19:51 27.59030° -82.93154° 30 min 0.01 0.01
226°
2021 Aug 13, 19:21 27.59033° -82.93150° 30 min 0.01 0.01
180°
2021 Aug 13, 18:51 27.59040° -82.93150° 30 min 0.01 0.00
318°
2021 Aug 13, 18:21 27.59038° -82.93148° 30 min 0.01 0.00
180°
2021 Aug 13, 17:51 27.59040° -82.93148° 30 min 0.01 0.00
90°
2021 Aug 13, 17:21 27.59040° -82.93150° 30 min 0.01 0.00
2021 Aug 13, 16:51 27.59038° -82.93150° 30 min 0.01 0.00
180°
2021 Aug 13, 16:21 27.59039° -82.93150° 30 min 0.01 0.00
2021 Aug 13, 15:51 27.59038° -82.93150° 30 min 0.01 0.00
2021 Aug 13, 15:21 27.59035° -82.93150° 30 min 0.01 0.00
149°
2021 Aug 13, 14:51 27.59037° -82.93152° 30 min 0.01 0.00
2021 Aug 13, 14:21 27.59036° -82.93152° 30 min 0.01 0.00
2021 Aug 13, 13:51 27.59034° -82.93152° 30 min 0.01 0.00
2021 Aug 13, 13:21 27.59031° -82.93152° 30 min 0.01 0.01
2021 Aug 13, 12:51 27.59023° -82.93152° 30 min 0.01 0.00
2021 Aug 13, 12:21 27.59020° -82.93152° 30 min 0.01 0.00
310°
2021 Aug 13, 11:51 27.59019° -82.93150° 30 min 0.01 0.00
147°
2021 Aug 13, 11:21 27.59021° -82.93152° 30 min 0.01 0.01
322°
2021 Aug 13, 10:51 27.59011° -82.93143° 30 min 0.01 0.00
180°
2021 Aug 13, 10:21 27.59014° -82.93143° 30 min 0.01 0.00
2021 Aug 13, 09:51 27.59011° -82.93143° 30 min 0.01 0.00
180°
2021 Aug 13, 09:21 27.59012° -82.93143° 30 min 0.01 0.01
297°
2021 Aug 13, 08:51 27.59010° -82.93139° 30 min 0.01 0.01
143°
2021 Aug 13, 08:21 27.59016° -82.93143° 30 min 0.01 0.01
155°
2021 Aug 13, 07:51 27.59024° -82.93148° 30 min 0.01 0.00
180°
2021 Aug 13, 07:21 27.59025° -82.93148° 30 min 0.01 0.01
198°
2021 Aug 13, 06:51 27.59032° -82.93146° 30 min 0.01 0.01
212°
2021 Aug 13, 06:21 27.59038° -82.93141° 30 min 0.01 0.00
222°
2021 Aug 13, 05:51 27.59040° -82.93139° 30 min 0.01 0.00
42°
2021 Aug 13, 05:21 27.59038° -82.93141° 30 min 0.01 0.01
2021 Aug 13, 04:51 27.59029° -82.93141° 30 min 0.01 0.01
291°
2021 Aug 13, 04:21 27.59024° -82.93128° 30 min 0.00 0.01
55°
2021 Aug 13, 03:51 27.59020° -82.93135° 30 min 0.01 0.01
111°
2021 Aug 13, 03:21 27.59022° -82.93141° 30 min 0.01 0.01
21°
2021 Aug 13, 02:51 27.59017° -82.93143° 30 min 0.01 0.00
90°
2021 Aug 13, 02:21 27.59017° -82.93146° 30 min 0.01 0.01
103°
2021 Aug 13, 01:51 27.59018° -82.93150° 30 min 0.01 0.01
180°
2021 Aug 13, 01:21 27.59029° -82.93150° 30 min 0.01 0.00
90°
2021 Aug 13, 00:51 27.59029° -82.93152° 30 min 0.01 0.01
348°
2021 Aug 13, 00:21 27.59022° -82.93150° 30 min 0.01 0.01
2021 Aug 12, 23:51 27.59015° -82.93150° 30 min 0.01 0.00
180°
2021 Aug 12, 23:21 27.59017° -82.93150° 30 min 0.01 0.01
159°
2021 Aug 12, 22:51 27.59025° -82.93154° 30 min 0.01 0.03
322°
2021 Aug 12, 22:21 27.59004° -82.93135° 30 min 0.02 0.01
241°
2021 Aug 12, 21:51 27.59009° -82.93124° 30 min 0.01 0.00
270°
2021 Aug 12, 21:21 27.59009° -82.93122° 30 min 0.01 0.00
241°
2021 Aug 12, 20:51 27.59010° -82.93120° 30 min 0.01 0.01
286°
2021 Aug 12, 20:21 27.59009° -82.93115° 30 min 0.01 0.01
143°
2021 Aug 12, 19:51 27.59015° -82.93120° 30 min 0.01 0.00
212°
2021 Aug 12, 19:21 27.59018° -82.93118° 30 min 0.01 0.01
165°
2021 Aug 12, 18:51 27.59025° -82.93120° 30 min 0.01 0.02
172°
2021 Aug 12, 18:21 27.59040° -82.93122° 30 min 0.01 0.00
180°
2021 Aug 12, 17:51 27.59044° -82.93122° 30 min 0.01 0.01
119°
2021 Aug 12, 17:21 27.59046° -82.93127° 30 min 0.01 0.01
132°
2021 Aug 12, 16:51 27.59049° -82.93130° 30 min 0.01 0.00
90°
2021 Aug 12, 16:21 27.59049° -82.93133° 30 min 0.01 0.00
65°
2021 Aug 12, 15:51 27.59048° -82.93135° 30 min 0.01 0.00
180°
2021 Aug 12, 15:21 27.59049° -82.93135° 30 min 0.01 0.00
44°
2021 Aug 12, 14:51 27.59047° -82.93137° 30 min 0.01 0.00
90°
2021 Aug 12, 14:21 27.59047° -82.93139° 30 min 0.01 0.01
55°
2021 Aug 12, 13:51 27.59043° -82.93146° 30 min 0.01 0.00
2021 Aug 12, 13:21 27.59043° -82.93146° 30 min 0.01 0.01
37°
2021 Aug 12, 12:51 27.59037° -82.93150° 30 min 0.01 0.01
12°
2021 Aug 12, 12:21 27.59031° -82.93152° 30 min 0.01 0.00
310°
2021 Aug 12, 11:51 27.59030° -82.93150° 30 min 0.01 0.00
2021 Aug 12, 11:21 27.59027° -82.93150° 30 min 0.01 0.00
2021 Aug 12, 10:51 27.59025° -82.93150° 30 min 0.01 0.00
2021 Aug 12, 10:21 27.59024° -82.93150° 30 min 0.01 0.00
2021 Aug 12, 09:51 27.59021° -82.93150° 30 min 0.01 0.00
180°
2021 Aug 12, 09:21 27.59023° -82.93150° 30 min 0.01 0.00
318°
2021 Aug 12, 08:51 27.59021° -82.93148° 30 min 0.01 0.00
180°
2021 Aug 12, 08:21 27.59022° -82.93148° 30 min 0.01 0.00
2021 Aug 12, 07:51 27.59022° -82.93148° 30 min 0.01 0.01
180°
2021 Aug 12, 07:21 27.59029° -82.93148° 30 min 0.01 0.01
206°
2021 Aug 12, 06:51 27.59033° -82.93146° 30 min 0.01 0.01
217°
2021 Aug 12, 06:21 27.59038° -82.93141° 30 min 0.01 0.00
222°
2021 Aug 12, 05:51 27.59040° -82.93139° 30 min 0.01 0.00
204°
2021 Aug 12, 05:21 27.59044° -82.93137° 30 min 0.01 0.00
212°
2021 Aug 12, 04:51 27.59047° -82.93135° 30 min 0.01 0.00
180°
2021 Aug 12, 04:21 27.59049° -82.93135° 30 min 0.01 0.00
58°
2021 Aug 12, 03:51 27.59047° -82.93139° 30 min 0.01 0.00
2021 Aug 12, 03:21 27.59046° -82.93139° 30 min 0.01 0.01
61°
2021 Aug 12, 02:51 27.59044° -82.93143° 30 min 0.01 0.01
53°
2021 Aug 12, 02:21 27.59040° -82.93148° 30 min 0.01 0.01
25°
2021 Aug 12, 01:51 27.59036° -82.93150° 30 min 0.01 0.00
270°
2021 Aug 12, 01:21 27.59036° -82.93148° 30 min 0.01 0.01
17°
2021 Aug 12, 00:51 27.59030° -82.93150° 30 min 0.01 0.01
339°
2021 Aug 12, 00:21 27.59019° -82.93146° 30 min 0.01 0.01
106°
2021 Aug 11, 23:51 27.59020° -82.93150° 30 min 0.01 0.01
166°
2021 Aug 11, 23:21 27.59025° -82.93152° 30 min 0.01 0.01
2021 Aug 11, 22:51 27.59020° -82.93152° 30 min 0.01 0.02
297°
2021 Aug 11, 22:21 27.59014° -82.93137° 30 min 0.01 0.01
281°
2021 Aug 11, 21:51 27.59012° -82.93130° 30 min 0.01 0.01
258°
2021 Aug 11, 21:21 27.59014° -82.93124° 30 min 0.01 0.00
245°
2021 Aug 11, 20:51 27.59015° -82.93122° 30 min 0.01 0.00
212°
2021 Aug 11, 20:21 27.59018° -82.93120° 30 min 0.01 0.02
153°
2021 Aug 11, 19:51 27.59030° -82.93127° 30 min 0.00 0.01
170°
2021 Aug 11, 19:21 27.59037° -82.93128° 30 min 0.00 0.01
180°
2021 Aug 11, 18:51 27.59044° -82.93128° 30 min 0.01 0.00
211°
2021 Aug 11, 18:21 27.59046° -82.93127° 30 min 0.01 0.01
257°
2021 Aug 11, 17:51 27.59047° -82.93122° 30 min 0.01 0.00
180°
2021 Aug 11, 17:21 27.59048° -82.93122° 30 min 0.01 0.00
180°
2021 Aug 11, 16:51 27.59049° -82.93122° 30 min 0.01 0.00
90°
2021 Aug 11, 16:21 27.59049° -82.93124° 30 min 0.01 0.00
180°
2021 Aug 11, 15:51 27.59050° -82.93124° 30 min 0.01 0.00
61°
2021 Aug 11, 15:21 27.59049° -82.93127° 30 min 0.01 0.00
130°
2021 Aug 11, 14:51 27.59050° -82.93128° 30 min 0.01 0.00
2021 Aug 11, 14:21 27.59049° -82.93128° 30 min 0.01 0.01
77°
2021 Aug 11, 13:51 27.59048° -82.93133° 30 min 0.01 0.01
74°
2021 Aug 11, 13:21 27.59047° -82.93137° 30 min 0.01 0.00
2021 Aug 11, 12:51 27.59047° -82.93137° 30 min 0.01 0.01
52°
2021 Aug 11, 12:21 27.59043° -82.93143° 30 min 0.01 0.00
44°
2021 Aug 11, 11:51 27.59040° -82.93146° 30 min 0.01 0.01
36°
2021 Aug 11, 11:21 27.59035° -82.93150° 30 min 0.01 0.00
23°
2021 Aug 11, 10:51 27.59032° -82.93152° 30 min 0.01 0.00
2021 Aug 11, 10:21 27.59030° -82.93152° 30 min 0.01 0.01
197°
2021 Aug 11, 09:51 27.59034° -82.93150° 30 min 0.01 0.01
2021 Aug 11, 09:21 27.59029° -82.93150° 30 min 0.01 0.00
2021 Aug 11, 08:51 27.59029° -82.93150° 30 min 0.01 0.00
2021 Aug 11, 08:21 27.59025° -82.93150° 30 min 0.01 0.00
316°
2021 Aug 11, 07:51 27.59023° -82.93148° 30 min 0.01 0.01
317°
2021 Aug 11, 07:21 27.59019° -82.93143° 30 min 0.01 0.01
165°
2021 Aug 11, 06:51 27.59026° -82.93146° 30 min 0.01 0.02
212°
2021 Aug 11, 06:21 27.59041° -82.93135° 30 min 0.01 0.01
159°
2021 Aug 11, 05:51 27.59047° -82.93137° 30 min 0.01 0.01
251°
2021 Aug 11, 05:21 27.59049° -82.93130° 30 min 0.01 0.00
251°
2021 Aug 11, 04:51 27.59050° -82.93127° 30 min 0.01 0.00
299°
2021 Aug 11, 04:21 27.59049° -82.93124° 30 min 0.01 0.00
2021 Aug 11, 03:51 27.59049° -82.93124° 30 min 0.01 0.00
90°
2021 Aug 11, 03:21 27.59049° -82.93128° 30 min 0.01 0.00
90°
2021 Aug 11, 02:51 27.59049° -82.93130° 30 min 0.01 0.00
65°
2021 Aug 11, 02:21 27.59048° -82.93133° 30 min 0.01 0.00
90°
2021 Aug 11, 01:51 27.59048° -82.93135° 30 min 0.01 0.00
58°
2021 Aug 11, 01:21 27.59046° -82.93139° 30 min 0.01 0.00
61°
2021 Aug 11, 00:51 27.59045° -82.93141° 30 min 0.01 0.00
44°
2021 Aug 11, 00:21 27.59043° -82.93143° 30 min 0.01 0.00
115°
2021 Aug 10, 23:51 27.59044° -82.93146° 30 min 0.01 0.01
37°
2021 Aug 10, 23:21 27.59038° -82.93150° 30 min 0.01 0.00
23°
2021 Aug 10, 22:51 27.59035° -82.93152° 30 min 0.01 0.01
160°
2021 Aug 10, 22:21 27.59040° -82.93154° 30 min 0.01 0.02
339°
2021 Aug 10, 21:51 27.59026° -82.93148° 30 min 0.01 0.01
334°
2021 Aug 10, 21:21 27.59022° -82.93146° 30 min 0.01 0.00
180°
2021 Aug 10, 20:51 27.59025° -82.93146° 30 min 0.01 0.01
201°
2021 Aug 10, 20:21 27.59031° -82.93143° 30 min 0.01 0.01
154°
2021 Aug 10, 19:51 27.59035° -82.93146° 30 min 0.01 0.01
234°
2021 Aug 10, 19:21 27.59039° -82.93139° 30 min 0.01 0.01
180°
2021 Aug 10, 18:51 27.59045° -82.93139° 30 min 0.01 0.00
238°
2021 Aug 10, 18:21 27.59047° -82.93135° 30 min 0.01 0.00
270°
2021 Aug 10, 17:51 27.59047° -82.93133° 30 min 0.01 0.00
2021 Aug 10, 17:21 27.59047° -82.93133° 30 min 0.01 0.00
224°
2021 Aug 10, 16:51 27.59049° -82.93130° 30 min 0.01 0.00
65°
2021 Aug 10, 16:21 27.59048° -82.93133° 30 min 0.01 0.00
115°
2021 Aug 10, 15:51 27.59049° -82.93135° 30 min 0.01 0.00
270°
2021 Aug 10, 15:21 27.59049° -82.93130° 30 min 0.01 0.00
241°
2021 Aug 10, 14:51 27.59050° -82.93128° 30 min 0.01 0.00
61°
2021 Aug 10, 14:21 27.59049° -82.93130° 30 min 0.01 0.00
180°
2021 Aug 10, 13:51 27.59050° -82.93130° 30 min 0.01 0.00
2021 Aug 10, 13:21 27.59050° -82.93130° 30 min 0.01 0.00
90°
2021 Aug 10, 12:51 27.59050° -82.93133° 30 min 0.01 0.01
63°
2021 Aug 10, 12:21 27.59048° -82.93137° 30 min 0.01 0.01
46°
2021 Aug 10, 11:51 27.59045° -82.93141° 30 min 0.01 0.00
90°
2021 Aug 10, 11:21 27.59045° -82.93143° 30 min 0.01 0.00
32°
2021 Aug 10, 10:51 27.59041° -82.93146° 30 min 0.01 0.00
90°
2021 Aug 10, 10:21 27.59041° -82.93148° 30 min 0.01 0.00
32°
2021 Aug 10, 09:51 27.59038° -82.93150° 30 min 0.01 0.00
2021 Aug 10, 09:21 27.59037° -82.93150° 30 min 0.01 0.00
2021 Aug 10, 08:51 27.59034° -82.93150° 30 min 0.01 0.00
50°
2021 Aug 10, 08:21 27.59033° -82.93152° 30 min 0.01 0.00
213°
2021 Aug 10, 07:51 27.59035° -82.93150° 30 min 0.01 0.01
180°
2021 Aug 10, 07:21 27.59039° -82.93150° 30 min 0.01 0.00
270°
2021 Aug 10, 06:51 27.59039° -82.93148° 30 min 0.01 0.01
235°
2021 Aug 10, 06:21 27.59044° -82.93141° 30 min 0.01 0.00
212°
2021 Aug 10, 05:51 27.59047° -82.93139° 30 min 0.01 0.01
249°
2021 Aug 10, 05:21 27.59049° -82.93133° 30 min 0.01 0.00
270°
2021 Aug 10, 04:51 27.59049° -82.93130° 30 min 0.01 0.00
180°
2021 Aug 10, 04:21 27.59050° -82.93130° 30 min 0.01 0.00
241°
2021 Aug 10, 03:51 27.59051° -82.93128° 30 min 0.01 0.01
282°
2021 Aug 10, 03:21 27.59050° -82.93122° 30 min 0.01 0.00
2021 Aug 10, 02:51 27.59050° -82.93122° 30 min 0.01 0.00
90°
2021 Aug 10, 02:21 27.59050° -82.93124° 30 min 0.01 0.00
299°
2021 Aug 10, 01:51 27.59049° -82.93122° 30 min 0.01 0.00
90°
2021 Aug 10, 01:21 27.59049° -82.93127° 30 min 0.01 0.00
109°
2021 Aug 10, 00:51 27.59050° -82.93130° 30 min 0.01 0.02
65°
2021 Aug 10, 00:21 27.59045° -82.93143° 30 min 0.01 0.01
74°
2021 Aug 09, 23:51 27.59044° -82.93148° 30 min 0.01 0.01
347°
2021 Aug 09, 23:21 27.59035° -82.93146° 30 min 0.01 0.01
2021 Aug 09, 22:51 27.59030° -82.93146° 30 min 0.01 0.01
2021 Aug 09, 22:21 27.59025° -82.93146° 30 min 0.01 0.00
224°
2021 Aug 09, 21:51 27.59027° -82.93143° 30 min 0.01 0.00
224°
2021 Aug 09, 21:21 27.59030° -82.93141° 30 min 0.01 0.00
295°
2021 Aug 09, 20:51 27.59029° -82.93139° 30 min 0.00 0.00
90°
2021 Aug 09, 20:21 27.59029° -82.93143° 30 min 0.01 0.00
180°
2021 Aug 09, 19:51 27.59031° -82.93143° 30 min 0.01 0.01
197°
2021 Aug 09, 19:21 27.59037° -82.93141° 30 min 0.01 0.01
201°
2021 Aug 09, 18:51 27.59043° -82.93139° 30 min 0.01 0.01
226°
2021 Aug 09, 18:21 27.59046° -82.93135° 30 min 0.01 0.01
286°
2021 Aug 09, 17:51 27.59045° -82.93130° 30 min 0.01 0.00
241°
2021 Aug 09, 17:21 27.59046° -82.93128° 30 min 0.01 0.00
136°
2021 Aug 09, 16:51 27.59048° -82.93130° 30 min 0.01 0.00
180°
2021 Aug 09, 16:21 27.59049° -82.93130° 30 min 0.01 0.00
180°
2021 Aug 09, 15:51 27.59050° -82.93130° 30 min 0.01 0.00
2021 Aug 09, 15:21 27.59050° -82.93130° 30 min 0.01 0.00
270°
2021 Aug 09, 14:51 27.59050° -82.93128° 30 min 0.01 0.00
119°
2021 Aug 09, 14:21 27.59051° -82.93130° 30 min 0.01 0.00
61°
2021 Aug 09, 13:51 27.59050° -82.93133° 30 min 0.01 0.00
2021 Aug 09, 13:21 27.59049° -82.93133° 30 min 0.01 0.00
90°
2021 Aug 09, 12:51 27.59049° -82.93137° 30 min 0.01 0.00
58°
2021 Aug 09, 12:21 27.59047° -82.93141° 30 min 0.01 0.00
2021 Aug 09, 11:51 27.59044° -82.93141° 30 min 0.01 0.00
90°
2021 Aug 09, 11:21 27.59044° -82.93143° 30 min 0.01 0.01
37°
2021 Aug 09, 10:51 27.59038° -82.93148° 30 min 0.01 0.00
270°
2021 Aug 09, 10:21 27.59038° -82.93146° 30 min 0.01 0.01
32°
2021 Aug 09, 09:51 27.59032° -82.93150° 30 min 0.01 0.00
2021 Aug 09, 09:21 27.59030° -82.93150° 30 min 0.01 0.02
330°
2021 Aug 09, 08:51 27.59016° -82.93141° 30 min 0.01 0.00
289°
2021 Aug 09, 08:21 27.59015° -82.93137° 30 min 0.01 0.00
149°
2021 Aug 09, 07:51 27.59017° -82.93139° 30 min 0.01 0.00
329°
2021 Aug 09, 07:21 27.59015° -82.93137° 30 min 0.01 0.01
283°
2021 Aug 09, 06:51 27.59014° -82.93133° 30 min 0.01 0.00
245°
2021 Aug 09, 06:21 27.59015° -82.93130° 30 min 0.01 0.01
129°
2021 Aug 09, 05:51 27.59018° -82.93135° 30 min 0.01 0.01
136°
2021 Aug 09, 05:21 27.59023° -82.93141° 30 min 0.01 0.01
162°
2021 Aug 09, 04:51 27.59030° -82.93143° 30 min 0.01 0.00
224°
2021 Aug 09, 04:21 27.59032° -82.93141° 30 min 0.01 0.01
200°
2021 Aug 09, 03:51 27.59037° -82.93139° 30 min 0.01 0.02
288°
2021 Aug 09, 03:21 27.59032° -82.93120° 30 min 0.01 0.01
258°
2021 Aug 09, 02:51 27.59033° -82.93114° 30 min 0.01 0.01
339°
2021 Aug 09, 02:21 27.59027° -82.93111° 30 min 0.01 0.01
134°
2021 Aug 09, 01:51 27.59031° -82.93115° 30 min 0.01 0.01
51°
2021 Aug 09, 01:21 27.59027° -82.93120° 30 min 0.01 0.02
351°
2021 Aug 09, 00:51 27.59015° -82.93118° 30 min 0.01 0.01
81°
2021 Aug 09, 00:21 27.59014° -82.93124° 30 min 0.01 0.00
44°
2021 Aug 08, 23:51 27.59011° -82.93127° 30 min 0.01 0.01
102°
2021 Aug 08, 23:21 27.59014° -82.93137° 30 min 0.01 0.01
111°
2021 Aug 08, 22:51 27.59016° -82.93143° 30 min 0.01 0.00
2021 Aug 08, 22:21 27.59016° -82.93143° 30 min 0.01 0.00
241°
2021 Aug 08, 21:51 27.59017° -82.93141° 30 min 0.01 0.01
226°
2021 Aug 08, 21:21 27.59020° -82.93137° 30 min 0.01 0.00
2021 Aug 08, 20:51 27.59020° -82.93137° 30 min 0.01 0.00
180°
2021 Aug 08, 20:21 27.59021° -82.93137° 30 min 0.01 0.00
2021 Aug 08, 19:51 27.59021° -82.93137° 30 min 0.01 0.01
254°
2021 Aug 08, 19:21 27.59022° -82.93133° 30 min 0.00 0.00
180°
2021 Aug 08, 18:51 27.59023° -82.93133° 30 min 0.00 0.00
299°
2021 Aug 08, 18:21 27.59022° -82.93130° 30 min 0.00 0.00
2021 Aug 08, 17:51 27.59021° -82.93130° 30 min 0.01 0.00
241°
2021 Aug 08, 17:21 27.59022° -82.93128° 30 min 0.00 0.00
230°
2021 Aug 08, 16:51 27.59023° -82.93127° 30 min 0.00 0.00
245°
2021 Aug 08, 16:21 27.59024° -82.93124° 30 min 0.00 0.00
212°
2021 Aug 08, 15:51 27.59027° -82.93122° 30 min 0.00 0.00
180°
2021 Aug 08, 15:21 27.59031° -82.93122° 30 min 0.00 0.00
180°
2021 Aug 08, 14:51 27.59033° -82.93122° 30 min 0.00 0.00
2021 Aug 08, 14:21 27.59032° -82.93122° 30 min 0.00 0.00
138°
2021 Aug 08, 13:51 27.59034° -82.93124° 30 min 0.00 0.00
299°
2021 Aug 08, 13:21 27.59033° -82.93122° 30 min 0.00 0.00
180°
2021 Aug 08, 12:51 27.59034° -82.93122° 30 min 0.00 0.00
90°
2021 Aug 08, 12:21 27.59034° -82.93124° 30 min 0.00 0.00
61°
2021 Aug 08, 11:51 27.59033° -82.93127° 30 min 0.00 0.00
2021 Aug 08, 11:21 27.59031° -82.93127° 30 min 0.00 0.00
50°
2021 Aug 08, 10:51 27.59030° -82.93128° 30 min 0.00 0.01
2021 Aug 08, 10:21 27.59024° -82.93128° 30 min 0.00 0.00
119°
2021 Aug 08, 09:51 27.59025° -82.93130° 30 min 0.00 0.00
316°
2021 Aug 08, 09:21 27.59023° -82.93128° 30 min 0.00 0.00
115°
2021 Aug 08, 08:51 27.59024° -82.93130° 30 min 0.00 0.00
295°
2021 Aug 08, 08:21 27.59023° -82.93128° 30 min 0.00 0.00
2021 Aug 08, 07:51 27.59022° -82.93128° 30 min 0.00 0.00
119°
2021 Aug 08, 07:21 27.59023° -82.93130° 30 min 0.00 0.00
2021 Aug 08, 06:51 27.59022° -82.93130° 30 min 0.00 0.00
251°
2021 Aug 08, 06:21 27.59023° -82.93127° 30 min 0.00 0.01
257°
2021 Aug 08, 05:51 27.59024° -82.93122° 30 min 0.01 0.01
180°
2021 Aug 08, 05:21 27.59031° -82.93122° 30 min 0.00 0.01
217°
2021 Aug 08, 04:51 27.59036° -82.93118° 30 min 0.01 0.00
2021 Aug 08, 04:21 27.59036° -82.93118° 30 min 0.01 0.00
2021 Aug 08, 03:51 27.59036° -82.93118° 30 min 0.01 0.00
224°
2021 Aug 08, 03:21 27.59038° -82.93115° 30 min 0.01 0.00
119°
2021 Aug 08, 02:51 27.59039° -82.93118° 30 min 0.01 0.00
180°
2021 Aug 08, 02:21 27.59040° -82.93118° 30 min 0.01 0.01
127°
2021 Aug 08, 01:51 27.59044° -82.93122° 30 min 0.01 0.01
106°
2021 Aug 08, 01:21 27.59045° -82.93127° 30 min 0.01 0.00
316°
2021 Aug 08, 00:51 27.59043° -82.93124° 30 min 0.01 0.01
90°
2021 Aug 08, 00:21 27.59043° -82.93130° 30 min 0.01 0.00
90°
2021 Aug 07, 23:51 27.59043° -82.93133° 30 min 0.01 0.00
61°
2021 Aug 07, 23:21 27.59041° -82.93135° 30 min 0.01 0.01
46°
2021 Aug 07, 22:51 27.59038° -82.93139° 30 min 0.01 0.01
21°
2021 Aug 07, 22:21 27.59033° -82.93141° 30 min 0.01 0.01
2021 Aug 07, 21:51 27.59029° -82.93141° 30 min 0.01 0.00
2021 Aug 07, 21:21 27.59027° -82.93141° 30 min 0.01 0.00
90°
2021 Aug 07, 20:51 27.59027° -82.93143° 30 min 0.01 0.00
2021 Aug 07, 20:21 27.59026° -82.93143° 30 min 0.01 0.00
2021 Aug 07, 19:51 27.59025° -82.93143° 30 min 0.01 0.00
136°
2021 Aug 07, 19:21 27.59027° -82.93146° 30 min 0.01 0.00
270°
2021 Aug 07, 18:51 27.59027° -82.93143° 30 min 0.01 0.00
180°
2021 Aug 07, 18:21 27.59029° -82.93143° 30 min 0.01 0.01
224°
2021 Aug 07, 17:51 27.59033° -82.93139° 30 min 0.01 0.01
212°
2021 Aug 07, 17:21 27.59038° -82.93135° 30 min 0.01 0.00
222°
2021 Aug 07, 16:51 27.59040° -82.93133° 30 min 0.01 0.01
233°
2021 Aug 07, 16:21 27.59044° -82.93128° 30 min 0.01 0.00
2021 Aug 07, 15:51 27.59044° -82.93128° 30 min 0.01 0.00
270°
2021 Aug 07, 15:21 27.59044° -82.93124° 30 min 0.01 0.00
138°
2021 Aug 07, 14:51 27.59046° -82.93127° 30 min 0.01 0.01
286°
2021 Aug 07, 14:21 27.59045° -82.93122° 30 min 0.01 0.00
119°
2021 Aug 07, 13:51 27.59046° -82.93124° 30 min 0.01 0.00
90°
2021 Aug 07, 13:21 27.59046° -82.93127° 30 min 0.01 0.00
2021 Aug 07, 12:51 27.59046° -82.93127° 30 min 0.01 0.00
2021 Aug 07, 12:21 27.59046° -82.93127° 30 min 0.01 0.00
50°
2021 Aug 07, 11:51 27.59045° -82.93128° 30 min 0.01 0.00
61°
2021 Aug 07, 11:21 27.59044° -82.93130° 30 min 0.01 0.00
138°
2021 Aug 07, 10:51 27.59046° -82.93133° 30 min 0.01 0.00
2021 Aug 07, 10:21 27.59045° -82.93133° 30 min 0.01 0.01
63°
2021 Aug 07, 09:51 27.59043° -82.93137° 30 min 0.01 0.00
33°
2021 Aug 07, 09:21 27.59040° -82.93139° 30 min 0.01 0.00
61°
2021 Aug 07, 08:51 27.59039° -82.93141° 30 min 0.01 0.00
90°
2021 Aug 07, 08:21 27.59039° -82.93143° 30 min 0.01 0.00
2021 Aug 07, 07:51 27.59038° -82.93143° 30 min 0.01 0.00
32°
2021 Aug 07, 07:21 27.59035° -82.93146° 30 min 0.01 0.00
32°
2021 Aug 07, 06:51 27.59032° -82.93148° 30 min 0.01 0.01
304°
2021 Aug 07, 06:21 27.59025° -82.93137° 30 min 0.00 0.02
264°
2021 Aug 07, 05:51 27.59027° -82.93115° 30 min 0.01 0.01
198°
2021 Aug 07, 05:21 27.59032° -82.93114° 30 min 0.01 0.00
241°
2021 Aug 07, 04:51 27.59033° -82.93111° 30 min 0.01 0.01
223°
2021 Aug 07, 04:21 27.59037° -82.93107° 30 min 0.01 0.01
154°
2021 Aug 07, 03:51 27.59041° -82.93109° 30 min 0.01 0.00
136°
2021 Aug 07, 03:21 27.59044° -82.93111° 30 min 0.01 0.00
241°
2021 Aug 07, 02:51 27.59045° -82.93109° 30 min 0.01 0.01
106°
2021 Aug 07, 02:21 27.59046° -82.93114° 30 min 0.01 0.00
2021 Aug 07, 01:51 27.59046° -82.93114° 30 min 0.01 0.00
180°
2021 Aug 07, 01:21 27.59048° -82.93114° 30 min 0.01 0.00
106°
2021 Aug 07, 00:51 27.59049° -82.93118° 30 min 0.01 0.00
90°
2021 Aug 07, 00:21 27.59049° -82.93120° 30 min 0.01 0.00
180°
2021 Aug 06, 23:51 27.59050° -82.93120° 30 min 0.01 0.00
119°
2021 Aug 06, 23:21 27.59051° -82.93122° 30 min 0.01 0.00
90°
2021 Aug 06, 22:51 27.59051° -82.93127° 30 min 0.01 0.01
100°
2021 Aug 06, 22:21 27.59052° -82.93133° 30 min 0.01 0.00
316°
2021 Aug 06, 21:51 27.59050° -82.93130° 30 min 0.01 0.01
74°
2021 Aug 06, 21:21 27.59049° -82.93135° 30 min 0.01 0.00
44°
2021 Aug 06, 20:51 27.59047° -82.93137° 30 min 0.01 0.00
55°
2021 Aug 06, 20:21 27.59046° -82.93139° 30 min 0.01 0.01
74°
2021 Aug 06, 19:51 27.59045° -82.93143° 30 min 0.01 0.00
241°
2021 Aug 06, 19:21 27.59046° -82.93141° 30 min 0.01 0.00
2021 Aug 06, 18:51 27.59045° -82.93141° 30 min 0.01 0.00
2021 Aug 06, 18:21 27.59043° -82.93141° 30 min 0.01 0.00
2021 Aug 06, 17:51 27.59041° -82.93141° 30 min 0.01 0.00
238°
2021 Aug 06, 17:21 27.59044° -82.93137° 30 min 0.01 0.00
180°
2021 Aug 06, 16:51 27.59045° -82.93137° 30 min 0.01 0.00
270°
2021 Aug 06, 16:21 27.59045° -82.93133° 30 min 0.01 0.00
180°
2021 Aug 06, 15:51 27.59046° -82.93133° 30 min 0.01 0.00
245°
2021 Aug 06, 15:21 27.59047° -82.93130° 30 min 0.01 0.00
270°
2021 Aug 06, 14:51 27.59047° -82.93128° 30 min 0.01 0.00
2021 Aug 06, 14:21 27.59047° -82.93128° 30 min 0.01 0.00
270°
2021 Aug 06, 13:51 27.59047° -82.93127° 30 min 0.01 0.00
2021 Aug 06, 13:21 27.59047° -82.93127° 30 min 0.01 0.00
90°
2021 Aug 06, 12:51 27.59047° -82.93128° 30 min 0.01 0.00
2021 Aug 06, 12:21 27.59047° -82.93128° 30 min 0.01 0.00
270°
2021 Aug 06, 11:51 27.59047° -82.93127° 30 min 0.01 0.00
2021 Aug 06, 11:21 27.59046° -82.93127° 30 min 0.01 0.00
2021 Aug 06, 10:51 27.59044° -82.93127° 30 min 0.01 0.00
90°
2021 Aug 06, 10:21 27.59044° -82.93128° 30 min 0.01 0.00
230°
2021 Aug 06, 09:51 27.59045° -82.93127° 30 min 0.01 0.00
71°
2021 Aug 06, 09:21 27.59044° -82.93130° 30 min 0.01 0.00
286°
2021 Aug 06, 08:51 27.59043° -82.93127° 30 min 0.01 0.00
2021 Aug 06, 08:21 27.59041° -82.93127° 30 min 0.01 0.00
295°
2021 Aug 06, 07:51 27.59040° -82.93124° 30 min 0.01 0.00
115°
2021 Aug 06, 07:21 27.59041° -82.93127° 30 min 0.01 0.00
2021 Aug 06, 06:51 27.59038° -82.93127° 30 min 0.01 0.01
254°
2021 Aug 06, 06:21 27.59039° -82.93122° 30 min 0.01 0.00
2021 Aug 06, 05:51 27.59037° -82.93122° 30 min 0.01 0.00
270°
2021 Aug 06, 05:21 27.59037° -82.93118° 30 min 0.01 0.00
299°
2021 Aug 06, 04:51 27.59036° -82.93115° 30 min 0.01 0.00
148°
2021 Aug 06, 04:21 27.59039° -82.93118° 30 min 0.01 0.00
238°
2021 Aug 06, 03:51 27.59041° -82.93114° 30 min 0.01 0.00
55°
2021 Aug 06, 03:21 27.59040° -82.93115° 30 min 0.01 0.01
117°
2021 Aug 06, 02:51 27.59043° -82.93120° 30 min 0.01 0.01
249°
2021 Aug 06, 02:21 27.59045° -82.93114° 30 min 0.01 0.00
2021 Aug 06, 01:51 27.59045° -82.93114° 30 min 0.01 0.00
130°
2021 Aug 06, 01:21 27.59046° -82.93115° 30 min 0.01 0.00
146°
2021 Aug 06, 00:51 27.59049° -82.93118° 30 min 0.01 0.00
295°
2021 Aug 06, 00:21 27.59048° -82.93115° 30 min 0.01 0.01
117°
2021 Aug 05, 23:51 27.59050° -82.93120° 30 min 0.01 0.01
106°
2021 Aug 05, 23:21 27.59051° -82.93124° 30 min 0.01 0.00
90°
2021 Aug 05, 22:51 27.59051° -82.93128° 30 min 0.01 0.00
180°
2021 Aug 05, 22:21 27.59052° -82.93128° 30 min 0.01 0.01
68°
2021 Aug 05, 21:51 27.59049° -82.93137° 30 min 0.01 0.00
58°
2021 Aug 05, 21:21 27.59047° -82.93141° 30 min 0.01 0.01
71°
2021 Aug 05, 20:51 27.59045° -82.93148° 30 min 0.01 0.01
17°
2021 Aug 05, 20:21 27.59038° -82.93150° 30 min 0.01 0.00
2021 Aug 05, 19:51 27.59037° -82.93150° 30 min 0.01 0.00
180°
2021 Aug 05, 19:21 27.59038° -82.93150° 30 min 0.01 0.00
270°
2021 Aug 05, 18:51 27.59038° -82.93148° 30 min 0.01 0.01
205°
2021 Aug 05, 18:21 27.59043° -82.93146° 30 min 0.01 0.00
245°
2021 Aug 05, 17:51 27.59044° -82.93143° 30 min 0.01 0.01
223°
2021 Aug 05, 17:21 27.59048° -82.93139° 30 min 0.01 0.00
235°
2021 Aug 05, 16:51 27.59049° -82.93137° 30 min 0.01 0.00
58°
2021 Aug 05, 16:21 27.59047° -82.93141° 30 min 0.01 0.00
295°
2021 Aug 05, 15:51 27.59046° -82.93139° 30 min 0.01 0.00
213°
2021 Aug 05, 15:21 27.59048° -82.93137° 30 min 0.01 0.01
256°
2021 Aug 05, 14:51 27.59050° -82.93128° 30 min 0.01 0.00
289°
2021 Aug 05, 14:21 27.59049° -82.93124° 30 min 0.01 0.00
2021 Aug 05, 13:51 27.59049° -82.93124° 30 min 0.01 0.00
270°
2021 Aug 05, 13:21 27.59049° -82.93120° 30 min 0.01 0.00
90°
2021 Aug 05, 12:51 27.59049° -82.93122° 30 min 0.01 0.00
2021 Aug 05, 12:21 27.59049° -82.93122° 30 min 0.01 0.00
241°
2021 Aug 05, 11:51 27.59050° -82.93120° 30 min 0.01 0.00
316°
2021 Aug 05, 11:21 27.59048° -82.93118° 30 min 0.01 0.00
180°
2021 Aug 05, 10:51 27.59049° -82.93118° 30 min 0.01 0.00
65°
2021 Aug 05, 10:21 27.59048° -82.93120° 30 min 0.01 0.00
180°
2021 Aug 05, 09:51 27.59049° -82.93120° 30 min 0.01 0.00
316°
2021 Aug 05, 09:21 27.59047° -82.93118° 30 min 0.01 0.00
180°
2021 Aug 05, 08:51 27.59048° -82.93118° 30 min 0.01 0.01
304°
2021 Aug 05, 08:21 27.59041° -82.93107° 30 min 0.01 0.01
339°
2021 Aug 05, 07:51 27.59033° -82.93103° 30 min 0.01 0.01
334°
2021 Aug 05, 07:21 27.59029° -82.93101° 30 min 0.02 0.02
127°
2021 Aug 05, 06:51 27.59038° -82.93115° 30 min 0.01 0.00
2021 Aug 05, 06:21 27.59036° -82.93115° 30 min 0.01 0.01
324°
2021 Aug 05, 05:51 27.59029° -82.93109° 30 min 0.01 0.00
180°
2021 Aug 05, 05:21 27.59031° -82.93109° 30 min 0.01 0.01
270°
2021 Aug 05, 04:51 27.59031° -82.93103° 30 min 0.01 0.00
147°
2021 Aug 05, 04:21 27.59033° -82.93105° 30 min 0.01 0.00
180°
2021 Aug 05, 03:51 27.59035° -82.93105° 30 min 0.01 0.01
342°
2021 Aug 05, 03:21 27.59031° -82.93103° 30 min 0.01 0.00
2021 Aug 05, 02:51 27.59030° -82.93103° 30 min 0.01 0.01
163°
2021 Aug 05, 02:21 27.59034° -82.93105° 30 min 0.01 0.01
163°
2021 Aug 05, 01:51 27.59040° -82.93107° 30 min 0.01 0.00
299°
2021 Aug 05, 01:21 27.59039° -82.93105° 30 min 0.01 0.01
129°
2021 Aug 05, 00:51 27.59043° -82.93109° 30 min 0.01 0.00
115°
2021 Aug 05, 00:21 27.59044° -82.93111° 30 min 0.01 0.01
155°
2021 Aug 04, 23:51 27.59048° -82.93114° 30 min 0.01 0.00
90°
2021 Aug 04, 23:21 27.59048° -82.93115° 30 min 0.01 0.00
90°
2021 Aug 04, 22:51 27.59048° -82.93120° 30 min 0.01 0.01
154°
2021 Aug 04, 22:21 27.59052° -82.93122° 30 min 0.01 0.00
2021 Aug 04, 21:51 27.59051° -82.93122° 30 min 0.01 0.01
117°
2021 Aug 04, 21:21 27.59053° -82.93127° 30 min 0.01 0.00
33°
2021 Aug 04, 20:51 27.59051° -82.93128° 30 min 0.01 0.00
90°
2021 Aug 04, 20:21 27.59051° -82.93133° 30 min 0.01 0.00
115°
2021 Aug 04, 19:51 27.59052° -82.93135° 30 min 0.01 0.00
90°
2021 Aug 04, 19:21 27.59052° -82.93137° 30 min 0.01 0.01
270°
2021 Aug 04, 18:51 27.59052° -82.93127° 30 min 0.01 0.00
295°
2021 Aug 04, 18:21 27.59051° -82.93124° 30 min 0.01 0.01
76°
2021 Aug 04, 17:51 27.59049° -82.93135° 30 min 0.01 0.00
180°
2021 Aug 04, 17:21 27.59052° -82.93135° 30 min 0.01 0.00
270°
2021 Aug 04, 16:51 27.59052° -82.93130° 30 min 0.01 0.01
44°
2021 Aug 04, 16:21 27.59048° -82.93135° 30 min 0.01 0.01
251°
2021 Aug 04, 15:51 27.59050° -82.93128° 30 min 0.01 0.00
310°
2021 Aug 04, 15:21 27.59049° -82.93127° 30 min 0.01 0.00
270°
2021 Aug 04, 14:51 27.59049° -82.93124° 30 min 0.01 0.01
279°
2021 Aug 04, 14:21 27.59048° -82.93118° 30 min 0.01 0.01
103°
2021 Aug 04, 13:51 27.59049° -82.93122° 30 min 0.01 0.00
222°
2021 Aug 04, 13:21 27.59051° -82.93120° 30 min 0.01 0.01
61°
2021 Aug 04, 12:51 27.59049° -82.93124° 30 min 0.01 0.01
282°
2021 Aug 04, 12:21 27.59047° -82.93114° 30 min 0.01 0.01
90°
2021 Aug 04, 11:51 27.59047° -82.93120° 30 min 0.01 0.01
258°
2021 Aug 04, 11:21 27.59048° -82.93114° 30 min 0.01 0.00
90°
2021 Aug 04, 10:51 27.59048° -82.93118° 30 min 0.01 0.01
314°
2021 Aug 04, 10:21 27.59045° -82.93114° 30 min 0.01 0.00
130°
2021 Aug 04, 09:51 27.59046° -82.93115° 30 min 0.01 0.00
270°
2021 Aug 04, 09:21 27.59046° -82.93111° 30 min 0.01 0.01
323°
2021 Aug 04, 08:51 27.59040° -82.93107° 30 min 0.01 0.02
107°
2021 Aug 04, 08:21 27.59045° -82.93122° 30 min 0.01 0.00
90°
2021 Aug 04, 07:51 27.59045° -82.93124° 30 min 0.01 0.00
299°
2021 Aug 04, 07:21 27.59044° -82.93122° 30 min 0.01 0.00
2021 Aug 04, 06:51 27.59044° -82.93122° 30 min 0.01 0.00
2021 Aug 04, 06:21 27.59044° -82.93122° 30 min 0.01 0.00
65°
2021 Aug 04, 05:51 27.59043° -82.93124° 30 min 0.01 0.01
298°
2021 Aug 04, 05:21 27.59038° -82.93115° 30 min 0.01 0.00
2021 Aug 04, 04:51 27.59038° -82.93115° 30 min 0.01 0.00
203°
2021 Aug 04, 04:21 27.59041° -82.93114° 30 min 0.01 0.00
122°
2021 Aug 04, 03:51 27.59044° -82.93118° 30 min 0.01 0.01
334°
2021 Aug 04, 03:21 27.59039° -82.93115° 30 min 0.01 0.00
289°
2021 Aug 04, 02:51 27.59038° -82.93111° 30 min 0.01 0.00
2021 Aug 04, 02:21 27.59038° -82.93111° 30 min 0.01 0.01
148°
2021 Aug 04, 01:51 27.59044° -82.93115° 30 min 0.01 0.00
2021 Aug 04, 01:21 27.59044° -82.93115° 30 min 0.01 0.00
2021 Aug 04, 00:51 27.59044° -82.93115° 30 min 0.01 0.00
90°
2021 Aug 04, 00:21 27.59044° -82.93120° 30 min 0.01 0.00
326°
2021 Aug 03, 23:51 27.59040° -82.93118° 30 min 0.01 0.00
318°
2021 Aug 03, 23:21 27.59038° -82.93115° 30 min 0.01 0.01
314°
2021 Aug 03, 22:51 27.59035° -82.93111° 30 min 0.01 0.00
148°
2021 Aug 03, 22:21 27.59038° -82.93114° 30 min 0.01 0.00
90°
2021 Aug 03, 21:51 27.59038° -82.93115° 30 min 0.01 0.01
315°
2021 Aug 03, 21:21 27.59033° -82.93109° 30 min 0.01 0.01
2021 Aug 03, 20:51 27.59024° -82.93109° 30 min 0.01 0.01
102°
2021 Aug 03, 20:21 27.59026° -82.93120° 30 min 0.01 0.02
73°
2021 Aug 03, 19:51 27.59022° -82.93135° 30 min 0.01 0.00
32°
2021 Aug 03, 19:21 27.59019° -82.93137° 30 min 0.01 0.01
323°
2021 Aug 03, 18:51 27.59014° -82.93133° 30 min 0.01 0.01
239°
2021 Aug 03, 18:21 27.59017° -82.93127° 30 min 0.01 0.01
180°
2021 Aug 03, 17:51 27.59021° -82.93127° 30 min 0.01 0.01
59°
2021 Aug 03, 17:21 27.59018° -82.93133° 30 min 0.01 0.01
83°
2021 Aug 03, 16:51 27.59017° -82.93141° 30 min 0.01 0.00
148°
2021 Aug 03, 16:21 27.59020° -82.93143° 30 min 0.01 0.00
299°
2021 Aug 03, 15:51 27.59019° -82.93141° 30 min 0.01 0.00
2021 Aug 03, 15:21 27.59018° -82.93141° 30 min 0.01 0.00
295°
2021 Aug 03, 14:51 27.59017° -82.93139° 30 min 0.01 0.00
2021 Aug 03, 14:21 27.59017° -82.93139° 30 min 0.01 0.01
293°
2021 Aug 03, 13:51 27.59015° -82.93133° 30 min 0.01 0.00
316°
2021 Aug 03, 13:21 27.59012° -82.93130° 30 min 0.01 0.00
270°
2021 Aug 03, 12:51 27.59012° -82.93127° 30 min 0.01 0.01
249°
2021 Aug 03, 12:21 27.59017° -82.93114° 30 min 0.01 0.01
59°
2021 Aug 03, 11:51 27.59012° -82.93122° 30 min 0.01 0.02
244°
2021 Aug 03, 11:21 27.59020° -82.93105° 30 min 0.01 0.01
198°
2021 Aug 03, 10:51 27.59024° -82.93103° 30 min 0.01 0.01
168°
2021 Aug 03, 10:21 27.59031° -82.93105° 30 min 0.01 0.01
165°
2021 Aug 03, 09:51 27.59038° -82.93107° 30 min 0.01 0.00
2021 Aug 03, 09:21 27.59037° -82.93107° 30 min 0.01 0.00
180°
2021 Aug 03, 08:51 27.59039° -82.93107° 30 min 0.01 0.00
148°
2021 Aug 03, 08:21 27.59043° -82.93109° 30 min 0.01 0.00
115°
2021 Aug 03, 07:51 27.59044° -82.93111° 30 min 0.01 0.00
138°
2021 Aug 03, 07:21 27.59046° -82.93114° 30 min 0.01 0.00
2021 Aug 03, 06:51 27.59043° -82.93114° 30 min 0.01 0.00
2021 Aug 03, 06:21 27.59040° -82.93114° 30 min 0.01 0.00
270°
2021 Aug 03, 05:51 27.59040° -82.93111° 30 min 0.01 0.00
318°
2021 Aug 03, 05:21 27.59038° -82.93109° 30 min 0.01 0.00
2021 Aug 03, 04:51 27.59038° -82.93109° 30 min 0.01 0.00
90°
2021 Aug 03, 04:21 27.59038° -82.93111° 30 min 0.01 0.01
316°
2021 Aug 03, 03:51 27.59034° -82.93107° 30 min 0.01 0.00
180°
2021 Aug 03, 03:21 27.59035° -82.93107° 30 min 0.01 0.00
316°
2021 Aug 03, 02:51 27.59033° -82.93105° 30 min 0.01 0.00
180°
2021 Aug 03, 02:21 27.59034° -82.93105° 30 min 0.01 0.00
180°
2021 Aug 03, 01:51 27.59035° -82.93105° 30 min 0.01 0.00
270°
2021 Aug 03, 01:21 27.59035° -82.93103° 30 min 0.01 0.00
2021 Aug 03, 00:51 27.59034° -82.93103° 30 min 0.01 0.01
162°
2021 Aug 03, 00:21 27.59038° -82.93105° 30 min 0.01 0.00
2021 Aug 02, 23:51 27.59037° -82.93105° 30 min 0.01 0.00
115°
2021 Aug 02, 23:21 27.59038° -82.93107° 30 min 0.01 0.00
180°
2021 Aug 02, 22:51 27.59039° -82.93107° 30 min 0.01 0.00
180°
2021 Aug 02, 22:21 27.59041° -82.93107° 30 min 0.01 0.00
119°
2021 Aug 02, 21:51 27.59043° -82.93109° 30 min 0.01 0.00
180°
2021 Aug 02, 21:21 27.59044° -82.93109° 30 min 0.01 0.00
90°
2021 Aug 02, 20:51 27.59044° -82.93111° 30 min 0.01 0.00
180°
2021 Aug 02, 20:21 27.59045° -82.93111° 30 min 0.01 0.00
109°
2021 Aug 02, 19:51 27.59046° -82.93115° 30 min 0.01 0.00
61°
2021 Aug 02, 19:21 27.59045° -82.93118° 30 min 0.01 0.00
90°
2021 Aug 02, 18:51 27.59045° -82.93120° 30 min 0.01 0.01
51°
2021 Aug 02, 18:21 27.59041° -82.93124° 30 min 0.01 0.00
74°
2021 Aug 02, 17:51 27.59040° -82.93128° 30 min 0.01 0.00
2021 Aug 02, 17:21 27.59039° -82.93128° 30 min 0.01 0.00
2021 Aug 02, 16:51 27.59037° -82.93128° 30 min 0.00 0.00
61°
2021 Aug 02, 16:21 27.59036° -82.93130° 30 min 0.00 0.01
2021 Aug 02, 15:51 27.59032° -82.93130° 30 min 0.00 0.01
315°
2021 Aug 02, 15:21 27.59024° -82.93122° 30 min 0.01 0.01
21°
2021 Aug 02, 14:51 27.59019° -82.93124° 30 min 0.01 0.01
335°
2021 Aug 02, 14:21 27.59015° -82.93122° 30 min 0.01 0.00
270°
2021 Aug 02, 13:51 27.59015° -82.93118° 30 min 0.01 0.01
220°
2021 Aug 02, 13:21 27.59023° -82.93109° 30 min 0.01 0.00
180°
2021 Aug 02, 12:51 27.59026° -82.93109° 30 min 0.01 0.00
295°
2021 Aug 02, 12:21 27.59025° -82.93107° 30 min 0.01 0.00
180°
2021 Aug 02, 11:51 27.59026° -82.93107° 30 min 0.01 0.00
180°
2021 Aug 02, 11:21 27.59029° -82.93107° 30 min 0.01 0.00
180°
2021 Aug 02, 10:51 27.59032°